sensor_id;sensor_type;location;lat;lon;timestamp;pressure;altitude;pressure_sealevel;temperature;humidity
69223;BME280;56514;51.816;-0.026;2023-03-04T00:01:26;102483.09;;;7.63;57.10
69223;BME280;56514;51.816;-0.026;2023-03-04T00:04:31;102483.16;;;7.62;57.04
69223;BME280;56514;51.816;-0.026;2023-03-04T00:07:36;102489.25;;;7.62;57.68
69223;BME280;56514;51.816;-0.026;2023-03-04T00:10:46;102483.94;;;7.64;57.14
69223;BME280;56514;51.816;-0.026;2023-03-04T00:13:57;102483.78;;;7.70;57.60
69223;BME280;56514;51.816;-0.026;2023-03-04T00:17:06;102493.31;;;7.74;57.58
69223;BME280;56514;51.816;-0.026;2023-03-04T00:20:16;102495.91;;;7.75;57.10
69223;BME280;56514;51.816;-0.026;2023-03-04T00:23:27;102492.44;;;7.73;57.61
69223;BME280;56514;51.816;-0.026;2023-03-04T00:26:36;102494.31;;;7.68;57.73
69223;BME280;56514;51.816;-0.026;2023-03-04T00:29:45;102495.31;;;7.64;58.35
69223;BME280;56514;51.816;-0.026;2023-03-04T00:32:54;102495.28;;;7.66;58.03
69223;BME280;56514;51.816;-0.026;2023-03-04T00:36:05;102497.91;;;7.66;58.16
69223;BME280;56514;51.816;-0.026;2023-03-04T00:39:14;102493.63;;;7.63;58.26
69223;BME280;56514;51.816;-0.026;2023-03-04T00:42:01;102485.72;;;7.63;58.21
69223;BME280;56514;51.816;-0.026;2023-03-04T00:44:46;102478.84;;;7.58;58.22
69223;BME280;56514;51.816;-0.026;2023-03-04T00:47:31;102476.19;;;7.59;58.73
69223;BME280;56514;51.816;-0.026;2023-03-04T00:50:16;102471.72;;;7.63;58.19
69223;BME280;56514;51.816;-0.026;2023-03-04T00:53:02;102476.91;;;7.66;58.45
69223;BME280;56514;51.816;-0.026;2023-03-04T00:55:47;102470.69;;;7.68;57.98
69223;BME280;56514;51.816;-0.026;2023-03-04T00:58:34;102474.22;;;7.67;58.40
69223;BME280;56514;51.816;-0.026;2023-03-04T01:01:19;102477.84;;;7.63;58.69
69223;BME280;56514;51.816;-0.026;2023-03-04T01:04:05;102475.28;;;7.62;58.34
69223;BME280;56514;51.816;-0.026;2023-03-04T01:06:49;102474.75;;;7.49;58.23
69223;BME280;56514;51.816;-0.026;2023-03-04T01:09:34;102476.63;;;7.44;58.09
69223;BME280;56514;51.816;-0.026;2023-03-04T01:12:19;102474.03;;;7.43;58.17
69223;BME280;56514;51.816;-0.026;2023-03-04T01:15:05;102470.56;;;7.41;57.95
69223;BME280;56514;51.816;-0.026;2023-03-04T01:17:50;102475.75;;;7.44;57.64
69223;BME280;56514;51.816;-0.026;2023-03-04T01:20:35;102472.19;;;7.46;57.96
69223;BME280;56514;51.816;-0.026;2023-03-04T01:23:19;102473.03;;;7.47;57.93
69223;BME280;56514;51.816;-0.026;2023-03-04T01:26:04;102482.66;;;7.48;57.79
69223;BME280;56514;51.816;-0.026;2023-03-04T01:28:49;102476.44;;;7.50;57.75
69223;BME280;56514;51.816;-0.026;2023-03-04T01:31:34;102473.06;;;7.45;57.57
69223;BME280;56514;51.816;-0.026;2023-03-04T01:34:19;102474.88;;;7.45;57.54
69223;BME280;56514;51.816;-0.026;2023-03-04T01:37:03;102468.69;;;7.46;57.17
69223;BME280;56514;51.816;-0.026;2023-03-04T01:39:48;102471.44;;;7.41;57.74
69223;BME280;56514;51.816;-0.026;2023-03-04T01:42:34;102466.19;;;7.41;57.55
69223;BME280;56514;51.816;-0.026;2023-03-04T01:45:20;102472.19;;;7.46;57.79
69223;BME280;56514;51.816;-0.026;2023-03-04T01:48:05;102468.78;;;7.43;57.25
69223;BME280;56514;51.816;-0.026;2023-03-04T01:50:50;102465.28;;;7.42;57.73
69223;BME280;56514;51.816;-0.026;2023-03-04T01:53:35;102462.56;;;7.45;58.00
69223;BME280;56514;51.816;-0.026;2023-03-04T01:56:27;102454.56;;;7.50;57.83
69223;BME280;56514;51.816;-0.026;2023-03-04T02:02:02;102449.31;;;7.50;57.82
69223;BME280;56514;51.816;-0.026;2023-03-04T02:04:47;102453.72;;;7.49;58.01
69223;BME280;56514;51.816;-0.026;2023-03-04T02:07:31;102444.97;;;7.49;58.09
69223;BME280;56514;51.816;-0.026;2023-03-04T02:10:17;102443.28;;;7.48;58.04
69223;BME280;56514;51.816;-0.026;2023-03-04T02:13:03;102439.84;;;7.44;58.06
69223;BME280;56514;51.816;-0.026;2023-03-04T02:15:48;102432.94;;;7.42;58.37
69223;BME280;56514;51.816;-0.026;2023-03-04T02:18:33;102430.28;;;7.43;58.58
69223;BME280;56514;51.816;-0.026;2023-03-04T02:21:24;102422.34;;;7.45;58.36
69223;BME280;56514;51.816;-0.026;2023-03-04T02:26:55;102426.69;;;7.46;58.68
69223;BME280;56514;51.816;-0.026;2023-03-04T02:29:40;102428.31;;;7.50;58.42
69223;BME280;56514;51.816;-0.026;2023-03-04T02:32:25;102424.84;;;7.49;58.41
69223;BME280;56514;51.816;-0.026;2023-03-04T02:35:15;102425.91;;;7.42;58.41
69223;BME280;56514;51.816;-0.026;2023-03-04T02:38:01;102422.59;;;7.36;58.83
69223;BME280;56514;51.816;-0.026;2023-03-04T02:40:50;102416.34;;;7.40;59.11
69223;BME280;56514;51.816;-0.026;2023-03-04T02:43:39;102413.78;;;7.38;59.56
69223;BME280;56514;51.816;-0.026;2023-03-04T02:46:24;102408.44;;;7.41;59.06
69223;BME280;56514;51.816;-0.026;2023-03-04T02:49:09;102413.78;;;7.38;59.55
69223;BME280;56514;51.816;-0.026;2023-03-04T02:52:04;102406.69;;;7.42;59.52
69223;BME280;56514;51.816;-0.026;2023-03-04T02:54:50;102408.34;;;7.44;59.19
69223;BME280;56514;51.816;-0.026;2023-03-04T02:57:35;102395.13;;;7.47;59.18
69223;BME280;56514;51.816;-0.026;2023-03-04T03:00:20;102406.47;;;7.49;59.40
69223;BME280;56514;51.816;-0.026;2023-03-04T03:03:05;102401.31;;;7.46;59.65
69223;BME280;56514;51.816;-0.026;2023-03-04T03:05:51;102406.56;;;7.46;59.67
69223;BME280;56514;51.816;-0.026;2023-03-04T03:08:40;102406.59;;;7.45;59.97
69223;BME280;56514;51.816;-0.026;2023-03-04T03:11:25;102400.47;;;7.44;60.17
69223;BME280;56514;51.816;-0.026;2023-03-04T03:14:10;102397.94;;;7.41;59.91
69223;BME280;56514;51.816;-0.026;2023-03-04T03:16:55;102397.97;;;7.40;60.24
69223;BME280;56514;51.816;-0.026;2023-03-04T03:19:41;102401.47;;;7.40;60.57
69223;BME280;56514;51.816;-0.026;2023-03-04T03:22:26;102399.72;;;7.39;60.60
69223;BME280;56514;51.816;-0.026;2023-03-04T03:25:13;102395.47;;;7.35;61.13
69223;BME280;56514;51.816;-0.026;2023-03-04T03:27:58;102401.75;;;7.31;61.59
69223;BME280;56514;51.816;-0.026;2023-03-04T03:30:43;102394.06;;;7.24;62.25
69223;BME280;56514;51.816;-0.026;2023-03-04T03:33:28;102389.91;;;7.15;62.39
69223;BME280;56514;51.816;-0.026;2023-03-04T03:36:12;102397.03;;;7.10;63.28
69223;BME280;56514;51.816;-0.026;2023-03-04T03:38:57;102397.03;;;7.10;63.07
69223;BME280;56514;51.816;-0.026;2023-03-04T03:41:42;102388.28;;;7.11;63.17
69223;BME280;56514;51.816;-0.026;2023-03-04T03:44:27;102385.66;;;7.11;63.04
69223;BME280;56514;51.816;-0.026;2023-03-04T03:47:12;102395.34;;;7.09;63.29
69223;BME280;56514;51.816;-0.026;2023-03-04T03:49:57;102390.97;;;7.09;63.15
69223;BME280;56514;51.816;-0.026;2023-03-04T03:52:42;102398.84;;;7.09;63.45
69223;BME280;56514;51.816;-0.026;2023-03-04T03:55:27;102403.41;;;7.01;63.99
69223;BME280;56514;51.816;-0.026;2023-03-04T03:58:13;102399.03;;;7.02;64.24
69223;BME280;56514;51.816;-0.026;2023-03-04T04:00:58;102405.97;;;7.04;63.82
69223;BME280;56514;51.816;-0.026;2023-03-04T04:03:42;102401.63;;;7.03;63.73
69223;BME280;56514;51.816;-0.026;2023-03-04T04:06:27;102397.16;;;7.05;63.60
69223;BME280;56514;51.816;-0.026;2023-03-04T04:09:12;102398.00;;;7.07;63.63
69223;BME280;56514;51.816;-0.026;2023-03-04T04:11:57;102399.66;;;7.11;62.98
69223;BME280;56514;51.816;-0.026;2023-03-04T04:14:42;102397.09;;;7.08;63.48
69223;BME280;56514;51.816;-0.026;2023-03-04T04:17:27;102400.53;;;7.10;63.29
69223;BME280;56514;51.816;-0.026;2023-03-04T04:20:13;102404.91;;;7.10;63.36
69223;BME280;56514;51.816;-0.026;2023-03-04T04:22:57;102391.94;;;7.05;63.58
69223;BME280;56514;51.816;-0.026;2023-03-04T04:25:42;102399.75;;;7.07;63.34
69223;BME280;56514;51.816;-0.026;2023-03-04T04:28:27;102395.41;;;7.06;62.85
69223;BME280;56514;51.816;-0.026;2023-03-04T04:31:12;102398.47;;;6.91;63.74
69223;BME280;56514;51.816;-0.026;2023-03-04T04:33:57;102395.75;;;6.94;63.57
69223;BME280;56514;51.816;-0.026;2023-03-04T04:36:42;102400.88;;;6.98;63.64
69223;BME280;56514;51.816;-0.026;2023-03-04T04:39:26;102398.38;;;6.94;64.01
69223;BME280;56514;51.816;-0.026;2023-03-04T04:42:11;102407.16;;;6.93;63.38
69223;BME280;56514;51.816;-0.026;2023-03-04T04:44:56;102408.13;;;6.89;64.40
69223;BME280;56514;51.816;-0.026;2023-03-04T04:47:41;102408.28;;;6.83;64.48
69223;BME280;56514;51.816;-0.026;2023-03-04T04:50:26;102405.50;;;6.89;64.50
69223;BME280;56514;51.816;-0.026;2023-03-04T04:53:12;102410.91;;;6.83;64.52
69223;BME280;56514;51.816;-0.026;2023-03-04T04:55:57;102406.53;;;6.83;64.73
69223;BME280;56514;51.816;-0.026;2023-03-04T04:58:43;102409.19;;;6.82;64.68
69223;BME280;56514;51.816;-0.026;2023-03-04T05:01:29;102405.72;;;6.80;64.74
69223;BME280;56514;51.816;-0.026;2023-03-04T05:04:14;102410.19;;;6.78;65.00
69223;BME280;56514;51.816;-0.026;2023-03-04T05:06:59;102404.94;;;6.78;64.59
69223;BME280;56514;51.816;-0.026;2023-03-04T05:09:44;102408.28;;;6.83;64.61
69223;BME280;56514;51.816;-0.026;2023-03-04T05:12:29;102411.72;;;6.85;64.13
69223;BME280;56514;51.816;-0.026;2023-03-04T05:15:14;102420.44;;;6.87;64.04
69223;BME280;56514;51.816;-0.026;2023-03-04T05:17:59;102424.84;;;6.85;64.25
69223;BME280;56514;51.816;-0.026;2023-03-04T05:20:48;102430.09;;;6.85;64.13
69223;BME280;56514;51.816;-0.026;2023-03-04T05:23:36;102423.97;;;6.84;64.52
69223;BME280;56514;51.816;-0.026;2023-03-04T05:26:21;102431.00;;;6.84;64.01
69223;BME280;56514;51.816;-0.026;2023-03-04T05:29:06;102430.34;;;6.76;64.80
69223;BME280;56514;51.816;-0.026;2023-03-04T05:31:51;102434.75;;;6.74;64.79
69223;BME280;56514;51.816;-0.026;2023-03-04T05:34:36;102430.44;;;6.71;65.46
69223;BME280;56514;51.816;-0.026;2023-03-04T05:37:21;102433.06;;;6.71;65.25
69223;BME280;56514;51.816;-0.026;2023-03-04T05:40:07;102434.75;;;6.74;64.78
69223;BME280;56514;51.816;-0.026;2023-03-04T05:42:52;102441.00;;;6.68;64.98
69223;BME280;56514;51.816;-0.026;2023-03-04T05:45:41;102440.25;;;6.63;65.38
69223;BME280;56514;51.816;-0.026;2023-03-04T05:48:27;102435.03;;;6.62;65.46
69223;BME280;56514;51.816;-0.026;2023-03-04T05:51:12;102429.81;;;6.62;65.32
69223;BME280;56514;51.816;-0.026;2023-03-04T05:53:57;102433.25;;;6.64;65.25
69223;BME280;56514;51.816;-0.026;2023-03-04T05:56:42;102427.03;;;6.68;65.21
69223;BME280;56514;51.816;-0.026;2023-03-04T05:59:27;102431.31;;;6.70;65.12
69223;BME280;56514;51.816;-0.026;2023-03-04T06:02:12;102427.06;;;6.66;64.85
69223;BME280;56514;51.816;-0.026;2023-03-04T06:04:57;102427.16;;;6.63;65.27
69223;BME280;56514;51.816;-0.026;2023-03-04T06:07:42;102428.28;;;6.53;65.13
69223;BME280;56514;51.816;-0.026;2023-03-04T06:10:27;102438.16;;;6.42;65.75
69223;BME280;56514;51.816;-0.026;2023-03-04T06:13:12;102443.44;;;6.41;65.83
69223;BME280;56514;51.816;-0.026;2023-03-04T06:15:58;102441.81;;;6.35;65.80
69223;BME280;56514;51.816;-0.026;2023-03-04T06:18:43;102445.44;;;6.30;66.21
69223;BME280;56514;51.816;-0.026;2023-03-04T06:21:28;102440.31;;;6.25;66.22
69223;BME280;56514;51.816;-0.026;2023-03-04T06:24:13;102446.41;;;6.26;66.42
69223;BME280;56514;51.816;-0.026;2023-03-04T06:26:58;102443.88;;;6.23;66.78
69223;BME280;56514;51.816;-0.026;2023-03-04T06:29:43;102441.97;;;6.28;66.90
69223;BME280;56514;51.816;-0.026;2023-03-04T06:32:28;102436.19;;;6.15;67.62
69223;BME280;56514;51.816;-0.026;2023-03-04T06:35:14;102437.16;;;6.10;67.87
69223;BME280;56514;51.816;-0.026;2023-03-04T06:38:00;102438.25;;;6.01;68.00
69223;BME280;56514;51.816;-0.026;2023-03-04T06:40:44;102444.66;;;5.87;68.69
69223;BME280;56514;51.816;-0.026;2023-03-04T06:43:29;102444.91;;;5.73;68.82
69223;BME280;56514;51.816;-0.026;2023-03-04T06:46:14;102451.28;;;5.62;69.61
69223;BME280;56514;51.816;-0.026;2023-03-04T06:48:59;102451.34;;;5.59;70.07
69223;BME280;56514;51.816;-0.026;2023-03-04T06:51:44;102452.94;;;5.64;69.71
69223;BME280;56514;51.816;-0.026;2023-03-04T06:54:29;102454.59;;;5.70;69.57
69223;BME280;56514;51.816;-0.026;2023-03-04T06:57:13;102456.19;;;5.77;69.32
69223;BME280;56514;51.816;-0.026;2023-03-04T06:59:59;102457.19;;;5.71;69.66
69223;BME280;56514;51.816;-0.026;2023-03-04T07:02:47;102465.00;;;5.73;69.69
69223;BME280;56514;51.816;-0.026;2023-03-04T07:05:32;102468.44;;;5.75;69.17
69223;BME280;56514;51.816;-0.026;2023-03-04T07:08:16;102470.25;;;5.73;69.47
69223;BME280;56514;51.816;-0.026;2023-03-04T07:11:01;102466.78;;;5.71;69.29
69223;BME280;56514;51.816;-0.026;2023-03-04T07:13:47;102471.03;;;5.76;69.72
69223;BME280;56514;51.816;-0.026;2023-03-04T07:16:32;102474.28;;;5.89;69.62
69223;BME280;56514;51.816;-0.026;2023-03-04T07:19:17;102472.25;;;6.03;69.18
69223;BME280;56514;51.816;-0.026;2023-03-04T07:22:02;102470.28;;;6.14;68.97
69223;BME280;56514;51.816;-0.026;2023-03-04T07:24:47;102470.06;;;6.23;68.92
69223;BME280;56514;51.816;-0.026;2023-03-04T07:27:32;102470.84;;;6.26;68.74
69223;BME280;56514;51.816;-0.026;2023-03-04T07:30:17;102472.56;;;6.29;68.69
69223;BME280;56514;51.816;-0.026;2023-03-04T07:33:02;102477.03;;;6.24;68.89
69223;BME280;56514;51.816;-0.026;2023-03-04T07:35:48;102480.41;;;6.29;68.82
69223;BME280;56514;51.816;-0.026;2023-03-04T07:38:32;102472.47;;;6.32;68.61
69223;BME280;56514;51.816;-0.026;2023-03-04T07:41:18;102475.84;;;6.38;68.79
69223;BME280;56514;51.816;-0.026;2023-03-04T07:44:04;102481.69;;;6.48;68.63
69223;BME280;56514;51.816;-0.026;2023-03-04T07:46:49;102477.84;;;6.64;68.21
69223;BME280;56514;51.816;-0.026;2023-03-04T07:49:35;102482.00;;;6.72;67.87
69223;BME280;56514;51.816;-0.026;2023-03-04T07:52:20;102483.69;;;6.75;67.74
69223;BME280;56514;51.816;-0.026;2023-03-04T07:55:05;102486.13;;;6.82;67.36
69223;BME280;56514;51.816;-0.026;2023-03-04T07:57:50;102485.94;;;6.90;67.40
69223;BME280;56514;51.816;-0.026;2023-03-04T08:00:35;102489.28;;;6.95;67.36
69223;BME280;56514;51.816;-0.026;2023-03-04T08:03:21;102485.78;;;6.96;67.66
69223;BME280;56514;51.816;-0.026;2023-03-04T08:06:07;102495.13;;;7.06;67.50
69223;BME280;56514;51.816;-0.026;2023-03-04T08:09:01;102494.97;;;7.12;67.69
69223;BME280;56514;51.816;-0.026;2023-03-04T08:11:46;102497.56;;;7.13;67.47
69223;BME280;56514;51.816;-0.026;2023-03-04T08:14:31;102486.91;;;7.19;67.49
69223;BME280;56514;51.816;-0.026;2023-03-04T08:17:18;102494.66;;;7.24;67.16
69223;BME280;56514;51.816;-0.026;2023-03-04T08:20:03;102504.13;;;7.31;67.31
69223;BME280;56514;51.816;-0.026;2023-03-04T08:22:50;102498.53;;;7.43;66.83
69223;BME280;56514;51.816;-0.026;2023-03-04T08:25:38;102503.75;;;7.45;66.54
69223;BME280;56514;51.816;-0.026;2023-03-04T08:28:24;102504.50;;;7.48;66.45
69223;BME280;56514;51.816;-0.026;2023-03-04T08:31:09;102496.22;;;7.63;66.08
69223;BME280;56514;51.816;-0.026;2023-03-04T08:33:55;102495.25;;;7.67;65.76
69223;BME280;56514;51.816;-0.026;2023-03-04T08:36:41;102498.59;;;7.72;65.16
69223;BME280;56514;51.816;-0.026;2023-03-04T08:39:26;102507.94;;;7.82;64.91
69223;BME280;56514;51.816;-0.026;2023-03-04T08:42:11;102513.84;;;7.90;64.99
69223;BME280;56514;51.816;-0.026;2023-03-04T08:44:56;102508.22;;;8.02;64.60
69223;BME280;56514;51.816;-0.026;2023-03-04T08:47:41;102509.91;;;8.05;64.68
69223;BME280;56514;51.816;-0.026;2023-03-04T08:50:25;102508.00;;;8.10;64.66
69223;BME280;56514;51.816;-0.026;2023-03-04T08:53:11;102511.78;;;8.01;64.76
69223;BME280;56514;51.816;-0.026;2023-03-04T08:55:56;102507.50;;;7.97;65.28
69223;BME280;56514;51.816;-0.026;2023-03-04T08:58:41;102499.69;;;7.94;65.53
69223;BME280;56514;51.816;-0.026;2023-03-04T09:01:27;102501.25;;;8.01;65.20
69223;BME280;56514;51.816;-0.026;2023-03-04T09:04:12;102491.31;;;8.11;65.45
69223;BME280;56514;51.816;-0.026;2023-03-04T09:06:57;102494.63;;;8.17;64.80
69223;BME280;56514;51.816;-0.026;2023-03-04T09:09:42;102486.69;;;8.19;64.95
69223;BME280;56514;51.816;-0.026;2023-03-04T09:12:27;102501.19;;;8.33;64.39
69223;BME280;56514;51.816;-0.026;2023-03-04T09:15:12;102494.75;;;8.43;64.52
69223;BME280;56514;51.816;-0.026;2023-03-04T09:17:58;102496.31;;;8.49;63.71
69223;BME280;56514;51.816;-0.026;2023-03-04T09:20:43;102495.63;;;8.44;63.24
69223;BME280;56514;51.816;-0.026;2023-03-04T09:23:28;102492.66;;;8.54;63.74
69223;BME280;56514;51.816;-0.026;2023-03-04T09:26:17;102496.84;;;8.60;63.10
69223;BME280;56514;51.816;-0.026;2023-03-04T09:29:03;102494.41;;;8.54;62.76
69223;BME280;56514;51.816;-0.026;2023-03-04T09:31:48;102488.94;;;8.60;62.08
69223;BME280;56514;51.816;-0.026;2023-03-04T09:34:33;102489.53;;;8.69;62.18
69223;BME280;56514;51.816;-0.026;2023-03-04T09:37:18;102490.09;;;8.79;62.16
69223;BME280;56514;51.816;-0.026;2023-03-04T09:40:04;102483.91;;;8.80;62.02
69223;BME280;56514;51.816;-0.026;2023-03-04T09:42:57;102484.44;;;8.91;61.90
69223;BME280;56514;51.816;-0.026;2023-03-04T09:45:48;102496.50;;;8.97;61.68
69223;BME280;56514;51.816;-0.026;2023-03-04T09:48:42;102489.47;;;8.97;60.89
69223;BME280;56514;51.816;-0.026;2023-03-04T10:00:38;102498.81;;;9.56;60.06
69223;BME280;56514;51.816;-0.026;2023-03-04T10:03:33;102493.59;;;9.30;58.82
69223;BME280;56514;51.816;-0.026;2023-03-04T10:06:24;102495.84;;;9.16;59.41
69223;BME280;56514;51.816;-0.026;2023-03-04T10:09:13;102491.44;;;9.17;59.82
69223;BME280;56514;51.816;-0.026;2023-03-04T10:12:05;102486.25;;;9.40;59.32
69223;BME280;56514;51.816;-0.026;2023-03-04T10:14:59;102484.50;;;9.63;59.25
69223;BME280;56514;51.816;-0.026;2023-03-04T10:17:49;102487.91;;;9.42;58.27
69223;BME280;56514;51.816;-0.026;2023-03-04T10:21:19;102492.94;;;8.98;59.59
69223;BME280;56514;51.816;-0.026;2023-03-04T10:24:13;102489.31;;;8.75;61.03
69223;BME280;56514;51.816;-0.026;2023-03-04T10:27:05;102484.56;;;8.86;61.37
69223;BME280;56514;51.816;-0.026;2023-03-04T10:29:57;102488.41;;;9.03;60.96
69223;BME280;56514;51.816;-0.026;2023-03-04T10:32:47;102501.38;;;9.33;60.64
69223;BME280;56514;51.816;-0.026;2023-03-04T10:35:34;102498.72;;;9.59;59.49
69223;BME280;56514;51.816;-0.026;2023-03-04T10:38:22;102489.22;;;9.55;58.48
69223;BME280;56514;51.816;-0.026;2023-03-04T10:41:19;102484.03;;;9.75;58.67
69223;BME280;56514;51.816;-0.026;2023-03-04T10:46:54;102491.25;;;9.95;57.23
69223;BME280;56514;51.816;-0.026;2023-03-04T10:49:53;102478.84;;;9.74;57.45
69223;BME280;56514;51.816;-0.026;2023-03-04T10:52:40;102481.53;;;9.49;58.14
69223;BME280;56514;51.816;-0.026;2023-03-04T10:55:42;102473.81;;;9.19;58.18
69223;BME280;56514;51.816;-0.026;2023-03-04T10:58:28;102479.53;;;9.05;59.03
69223;BME280;56514;51.816;-0.026;2023-03-04T11:01:14;102478.91;;;8.99;59.40
69223;BME280;56514;51.816;-0.026;2023-03-04T11:04:01;102478.91;;;8.99;59.25
69223;BME280;56514;51.816;-0.026;2023-03-04T11:06:46;102471.63;;;9.05;59.61
69223;BME280;56514;51.816;-0.026;2023-03-04T11:09:31;102474.78;;;9.16;59.75
69223;BME280;56514;51.816;-0.026;2023-03-04T11:12:20;102477.03;;;9.27;58.94
69223;BME280;56514;51.816;-0.026;2023-03-04T11:15:20;102469.03;;;9.54;58.78
69223;BME280;56514;51.816;-0.026;2023-03-04T11:18:11;102473.34;;;9.80;57.65
69223;BME280;56514;51.816;-0.026;2023-03-04T11:20:58;102462.69;;;9.83;56.92
69223;BME280;56514;51.816;-0.026;2023-03-04T11:23:46;102455.56;;;9.85;56.66
69223;BME280;56514;51.816;-0.026;2023-03-04T11:26:39;102454.63;;;10.10;56.35
69223;BME280;56514;51.816;-0.026;2023-03-04T11:29:30;102453.31;;;10.22;54.84
69223;BME280;56514;51.816;-0.026;2023-03-04T11:32:28;102446.00;;;10.07;55.32
69223;BME280;56514;51.816;-0.026;2023-03-04T11:35:43;102439.75;;;9.85;55.00
69223;BME280;56514;51.816;-0.026;2023-03-04T11:38:36;102452.72;;;9.68;55.27
69223;BME280;56514;51.816;-0.026;2023-03-04T11:41:33;102448.59;;;9.61;55.91
69223;BME280;56514;51.816;-0.026;2023-03-04T11:44:20;102445.78;;;9.65;55.67
69223;BME280;56514;51.816;-0.026;2023-03-04T11:50:29;102435.72;;;9.99;54.85
69223;BME280;56514;51.816;-0.026;2023-03-04T11:53:34;102436.06;;;10.35;53.79
69223;BME280;56514;51.816;-0.026;2023-03-04T11:59:42;102421.16;;;10.34;53.37
69223;BME280;56514;51.816;-0.026;2023-03-04T12:09:13;102424.84;;;10.08;53.98
69223;BME280;56514;51.816;-0.026;2023-03-04T12:36:34;102368.72;;;11.08;51.95
69223;BME280;56514;51.816;-0.026;2023-03-04T12:39:31;102368.72;;;11.47;50.14
69223;BME280;56514;51.816;-0.026;2023-03-04T12:46:14;102356.84;;;11.75;48.42
69223;BME280;56514;51.816;-0.026;2023-03-04T12:52:47;102353.34;;;10.78;50.23
69223;BME280;56514;51.816;-0.026;2023-03-04T12:55:39;102346.31;;;10.36;50.86
69223;BME280;56514;51.816;-0.026;2023-03-04T12:58:29;102345.41;;;10.16;51.53
69223;BME280;56514;51.816;-0.026;2023-03-04T13:07:21;102341.50;;;9.81;52.37
69223;BME280;56514;51.816;-0.026;2023-03-04T13:10:15;102348.75;;;9.98;52.65
69223;BME280;56514;51.816;-0.026;2023-03-04T13:13:02;102339.22;;;10.17;52.24
69223;BME280;56514;51.816;-0.026;2023-03-04T13:16:01;102336.88;;;10.31;51.08
69223;BME280;56514;51.816;-0.026;2023-03-04T13:18:47;102336.63;;;10.37;51.75
69223;BME280;56514;51.816;-0.026;2023-03-04T13:21:44;102319.59;;;10.44;51.59
69223;BME280;56514;51.816;-0.026;2023-03-04T13:24:47;102326.31;;;10.31;51.68
69223;BME280;56514;51.816;-0.026;2023-03-04T13:36:51;102311.28;;;9.90;52.61
69223;BME280;56514;51.816;-0.026;2023-03-04T13:39:38;102316.38;;;9.94;52.72
69223;BME280;56514;51.816;-0.026;2023-03-04T13:42:42;102306.09;;;9.88;52.33
69223;BME280;56514;51.816;-0.026;2023-03-04T13:45:32;102309.75;;;9.84;52.47
69223;BME280;56514;51.816;-0.026;2023-03-04T13:48:27;102300.63;;;9.71;52.71
69223;BME280;56514;51.816;-0.026;2023-03-04T13:54:06;102303.19;;;9.73;52.90
69223;BME280;56514;51.816;-0.026;2023-03-04T13:59:56;102300.97;;;10.07;52.55
69223;BME280;56514;51.816;-0.026;2023-03-04T14:02:42;102289.72;;;10.23;52.21
69223;BME280;56514;51.816;-0.026;2023-03-04T14:05:27;102293.53;;;10.36;52.23
69223;BME280;56514;51.816;-0.026;2023-03-04T14:08:17;102296.19;;;10.56;52.04
69223;BME280;56514;51.816;-0.026;2023-03-04T14:11:02;102287.94;;;10.64;50.73
69223;BME280;56514;51.816;-0.026;2023-03-04T14:13:47;102293.63;;;10.55;50.72
69223;BME280;56514;51.816;-0.026;2023-03-04T14:16:38;102291.72;;;10.38;50.90
69223;BME280;56514;51.816;-0.026;2023-03-04T14:19:30;102282.53;;;10.27;51.30
69223;BME280;56514;51.816;-0.026;2023-03-04T14:22:30;102292.00;;;10.11;51.43
69223;BME280;56514;51.816;-0.026;2023-03-04T14:25:25;102286.56;;;9.92;51.71
69223;BME280;56514;51.816;-0.026;2023-03-04T14:28:14;102281.72;;;9.82;51.76
69223;BME280;56514;51.816;-0.026;2023-03-04T14:31:03;102279.16;;;9.59;52.55
69223;BME280;56514;51.816;-0.026;2023-03-04T14:33:51;102279.28;;;9.56;52.63
69223;BME280;56514;51.816;-0.026;2023-03-04T14:36:42;102276.63;;;9.56;52.78
69223;BME280;56514;51.816;-0.026;2023-03-04T14:39:30;102273.94;;;9.57;52.15
69223;BME280;56514;51.816;-0.026;2023-03-04T14:42:18;102279.97;;;9.38;53.19
69223;BME280;56514;51.816;-0.026;2023-03-04T14:45:06;102275.66;;;9.37;53.10
69223;BME280;56514;51.816;-0.026;2023-03-04T14:47:58;102265.06;;;9.38;52.73
69223;BME280;56514;51.816;-0.026;2023-03-04T14:50:50;102266.94;;;9.35;52.71
69223;BME280;56514;51.816;-0.026;2023-03-04T14:53:35;102264.06;;;9.41;52.86
69223;BME280;56514;51.816;-0.026;2023-03-04T14:56:28;102258.31;;;9.53;52.75
69223;BME280;56514;51.816;-0.026;2023-03-04T14:59:13;102255.56;;;9.56;52.34
69223;BME280;56514;51.816;-0.026;2023-03-04T15:02:28;102248.28;;;9.62;52.59
69223;BME280;56514;51.816;-0.026;2023-03-04T15:05:25;102250.03;;;9.62;52.75
69223;BME280;56514;51.816;-0.026;2023-03-04T15:08:35;102244.78;;;9.62;51.98
69223;BME280;56514;51.816;-0.026;2023-03-04T15:11:25;102243.13;;;9.59;52.46
69223;BME280;56514;51.816;-0.026;2023-03-04T15:14:42;102245.53;;;9.65;52.68
69223;BME280;56514;51.816;-0.026;2023-03-04T15:17:37;102235.66;;;9.70;52.20
69223;BME280;56514;51.816;-0.026;2023-03-04T15:20:28;102232.09;;;9.71;51.73
69223;BME280;56514;51.816;-0.026;2023-03-04T15:23:14;102230.47;;;9.69;51.23
69223;BME280;56514;51.816;-0.026;2023-03-04T15:26:02;102232.28;;;9.67;51.69
69223;BME280;56514;51.816;-0.026;2023-03-04T15:28:48;102232.53;;;9.61;51.67
69223;BME280;56514;51.816;-0.026;2023-03-04T15:31:33;102228.38;;;9.55;51.08
69223;BME280;56514;51.816;-0.026;2023-03-04T15:34:20;102224.44;;;9.44;50.45
69223;BME280;56514;51.816;-0.026;2023-03-04T15:37:07;102219.59;;;9.33;51.08
69223;BME280;56514;51.816;-0.026;2023-03-04T15:39:55;102220.81;;;9.25;51.39
69223;BME280;56514;51.816;-0.026;2023-03-04T15:42:42;102216.75;;;9.16;52.07
69223;BME280;56514;51.816;-0.026;2023-03-04T15:45:32;102216.09;;;9.11;52.06
69223;BME280;56514;51.816;-0.026;2023-03-04T15:48:21;102217.91;;;9.09;52.39
69223;BME280;56514;51.816;-0.026;2023-03-04T15:51:12;102212.25;;;8.97;52.87
69223;BME280;56514;51.816;-0.026;2023-03-04T15:53:59;102216.91;;;8.88;53.43
69223;BME280;56514;51.816;-0.026;2023-03-04T15:56:44;102217.97;;;8.84;53.86
69223;BME280;56514;51.816;-0.026;2023-03-04T15:59:29;102211.72;;;8.87;53.81
69223;BME280;56514;51.816;-0.026;2023-03-04T16:02:20;102209.91;;;8.89;53.69
69223;BME280;56514;51.816;-0.026;2023-03-04T16:05:06;102214.13;;;8.93;53.89